sensor_id;sensor_type;location;lat;lon;timestamp;pressure;altitude;pressure_sealevel;temperature;humidity
45040;BME280;30778;53.574;7.770;2023-11-19T00:02:21;100539.41;;;4.30;65.16
45040;BME280;30778;53.574;7.770;2023-11-19T00:04:47;100541.78;;;4.40;64.97
45040;BME280;30778;53.574;7.770;2023-11-19T00:07:13;100537.56;;;4.36;65.08
45040;BME280;30778;53.574;7.770;2023-11-19T00:09:39;100521.78;;;4.49;65.20
45040;BME280;30778;53.574;7.770;2023-11-19T00:12:06;100522.50;;;4.57;65.13
45040;BME280;30778;53.574;7.770;2023-11-19T00:14:32;100528.53;;;4.56;65.02
45040;BME280;30778;53.574;7.770;2023-11-19T00:16:57;100517.94;;;4.68;65.17
45040;BME280;30778;53.574;7.770;2023-11-19T00:19:23;100511.13;;;4.62;65.30
45040;BME280;30778;53.574;7.770;2023-11-19T00:21:48;100512.84;;;4.63;65.80
45040;BME280;30778;53.574;7.770;2023-11-19T00:24:14;100499.53;;;4.38;67.35
45040;BME280;30778;53.574;7.770;2023-11-19T00:26:42;100497.75;;;4.84;66.08
45040;BME280;30778;53.574;7.770;2023-11-19T00:29:08;100500.44;;;4.79;66.97
45040;BME280;30778;53.574;7.770;2023-11-19T00:31:33;100491.31;;;5.03;65.90
45040;BME280;30778;53.574;7.770;2023-11-19T00:33:59;100478.13;;;5.13;65.54
45040;BME280;30778;53.574;7.770;2023-11-19T00:36:24;100466.84;;;5.15;66.16
45040;BME280;30778;53.574;7.770;2023-11-19T00:38:51;100473.94;;;5.07;66.45
45040;BME280;30778;53.574;7.770;2023-11-19T00:41:18;100468.38;;;5.22;65.83
45040;BME280;30778;53.574;7.770;2023-11-19T00:43:44;100451.06;;;5.24;65.91
45040;BME280;30778;53.574;7.770;2023-11-19T00:46:10;100448.09;;;5.40;65.60
45040;BME280;30778;53.574;7.770;2023-11-19T00:48:39;100439.31;;;5.45;65.04
45040;BME280;30778;53.574;7.770;2023-11-19T00:51:05;100438.78;;;5.33;65.82
45040;BME280;30778;53.574;7.770;2023-11-19T00:53:31;100428.09;;;5.45;65.34
45040;BME280;30778;53.574;7.770;2023-11-19T00:56:00;100429.72;;;5.49;65.64
45040;BME280;30778;53.574;7.770;2023-11-19T00:58:25;100432.16;;;5.55;65.65
45040;BME280;30778;53.574;7.770;2023-11-19T01:00:51;100417.88;;;5.72;65.28
45040;BME280;30778;53.574;7.770;2023-11-19T01:03:16;100431.09;;;5.62;66.04
45040;BME280;30778;53.574;7.770;2023-11-19T01:05:42;100417.09;;;5.68;65.86
45040;BME280;30778;53.574;7.770;2023-11-19T01:08:09;100413.34;;;5.80;65.60
45040;BME280;30778;53.574;7.770;2023-11-19T01:10:37;100413.91;;;5.91;65.74
45040;BME280;30778;53.574;7.770;2023-11-19T01:13:02;100414.06;;;5.85;66.14
45040;BME280;30778;53.574;7.770;2023-11-19T01:15:31;100401.06;;;5.86;66.90
45040;BME280;30778;53.574;7.770;2023-11-19T01:17:58;100394.38;;;5.78;67.74
45040;BME280;30778;53.574;7.770;2023-11-19T01:20:23;100404.50;;;5.87;68.19
45040;BME280;30778;53.574;7.770;2023-11-19T01:22:50;100388.06;;;6.18;67.12
45040;BME280;30778;53.574;7.770;2023-11-19T01:25:16;100394.78;;;6.25;68.09
45040;BME280;30778;53.574;7.770;2023-11-19T01:27:43;100378.63;;;6.15;69.89
45040;BME280;30778;53.574;7.770;2023-11-19T01:30:09;100387.53;;;6.36;69.45
45040;BME280;30778;53.574;7.770;2023-11-19T01:32:38;100373.81;;;6.61;68.99
45040;BME280;30778;53.574;7.770;2023-11-19T01:35:04;100378.97;;;6.62;68.70
45040;BME280;30778;53.574;7.770;2023-11-19T01:37:29;100371.09;;;6.64;68.84
45040;BME280;30778;53.574;7.770;2023-11-19T01:39:56;100364.53;;;5.94;72.13
45040;BME280;30778;53.574;7.770;2023-11-19T01:42:23;100363.31;;;6.64;69.63
45040;BME280;30778;53.574;7.770;2023-11-19T01:45:00;100351.03;;;6.42;71.36
45040;BME280;30778;53.574;7.770;2023-11-19T01:47:30;100358.19;;;6.62;70.93
45040;BME280;30778;53.574;7.770;2023-11-19T01:49:56;100362.63;;;6.59;69.95
45040;BME280;30778;53.574;7.770;2023-11-19T01:52:22;100347.53;;;6.70;70.18
45040;BME280;30778;53.574;7.770;2023-11-19T01:54:49;100349.25;;;6.98;69.44
45040;BME280;30778;53.574;7.770;2023-11-19T01:57:15;100358.84;;;6.69;70.86
45040;BME280;30778;53.574;7.770;2023-11-19T01:59:41;100348.50;;;7.19;68.63
45040;BME280;30778;53.574;7.770;2023-11-19T02:02:07;100357.63;;;7.06;69.59
45040;BME280;30778;53.574;7.770;2023-11-19T02:04:33;100354.66;;;6.91;70.26
45040;BME280;30778;53.574;7.770;2023-11-19T02:07:00;100364.53;;;7.07;70.13
45040;BME280;30778;53.574;7.770;2023-11-19T02:09:26;100350.69;;;7.31;68.78
45040;BME280;30778;53.574;7.770;2023-11-19T02:11:53;100350.91;;;7.25;69.35
45040;BME280;30778;53.574;7.770;2023-11-19T02:14:22;100334.34;;;7.03;69.72
45040;BME280;30778;53.574;7.770;2023-11-19T02:16:49;100321.31;;;7.29;69.28
45040;BME280;30778;53.574;7.770;2023-11-19T02:19:15;100321.13;;;7.34;69.47
45040;BME280;30778;53.574;7.770;2023-11-19T02:21:40;100319.53;;;7.30;69.75
45040;BME280;30778;53.574;7.770;2023-11-19T02:24:09;100316.44;;;7.20;69.98
45040;BME280;30778;53.574;7.770;2023-11-19T02:26:39;100312.38;;;7.37;69.70
45040;BME280;30778;53.574;7.770;2023-11-19T02:29:05;100314.91;;;7.13;70.21
45040;BME280;30778;53.574;7.770;2023-11-19T02:31:32;100313.47;;;7.56;69.17
45040;BME280;30778;53.574;7.770;2023-11-19T02:33:59;100310.69;;;7.36;69.93
45040;BME280;30778;53.574;7.770;2023-11-19T02:36:27;100311.47;;;7.38;70.50
45040;BME280;30778;53.574;7.770;2023-11-19T02:38:53;100306.25;;;7.38;70.61
45040;BME280;30778;53.574;7.770;2023-11-19T02:41:19;100300.59;;;7.75;68.49
45040;BME280;30778;53.574;7.770;2023-11-19T02:43:44;100304.84;;;7.78;68.33
45040;BME280;30778;53.574;7.770;2023-11-19T02:46:10;100305.88;;;7.48;70.04
45040;BME280;30778;53.574;7.770;2023-11-19T02:48:36;100304.56;;;7.62;69.48
45040;BME280;30778;53.574;7.770;2023-11-19T02:51:02;100312.94;;;7.70;69.03
45040;BME280;30778;53.574;7.770;2023-11-19T02:53:34;100301.44;;;7.76;68.57
45040;BME280;30778;53.574;7.770;2023-11-19T02:56:00;100308.81;;;7.64;68.87
45040;BME280;30778;53.574;7.770;2023-11-19T02:58:43;100297.75;;;7.83;68.75
45040;BME280;30778;53.574;7.770;2023-11-19T03:01:10;100305.72;;;7.78;68.77
45040;BME280;30778;53.574;7.770;2023-11-19T03:03:44;100308.66;;;7.44;70.22
45040;BME280;30778;53.574;7.770;2023-11-19T03:06:14;100305.53;;;7.83;69.14
45040;BME280;30778;53.574;7.770;2023-11-19T03:08:40;100301.22;;;7.82;69.08
45040;BME280;30778;53.574;7.770;2023-11-19T03:11:05;100302.03;;;7.60;70.04
45040;BME280;30778;53.574;7.770;2023-11-19T03:13:31;100302.66;;;7.42;70.86
45040;BME280;30778;53.574;7.770;2023-11-19T03:15:56;100302.81;;;7.86;69.29
45040;BME280;30778;53.574;7.770;2023-11-19T03:18:22;100301.13;;;7.85;69.06
45040;BME280;30778;53.574;7.770;2023-11-19T03:20:47;100300.31;;;7.59;70.11
45040;BME280;30778;53.574;7.770;2023-11-19T03:23:13;100303.38;;;7.70;69.80
45040;BME280;30778;53.574;7.770;2023-11-19T03:25:38;100287.06;;;7.89;68.55
45040;BME280;30778;53.574;7.770;2023-11-19T03:28:04;100289.63;;;7.90;67.92
45040;BME280;30778;53.574;7.770;2023-11-19T03:30:31;100287.16;;;7.64;69.69
45040;BME280;30778;53.574;7.770;2023-11-19T03:32:59;100272.97;;;7.72;69.09
45040;BME280;30778;53.574;7.770;2023-11-19T03:35:28;100271.78;;;7.58;70.16
45040;BME280;30778;53.574;7.770;2023-11-19T03:37:54;100277.59;;;7.88;69.07
45040;BME280;30778;53.574;7.770;2023-11-19T03:40:19;100284.66;;;7.84;68.99
45040;BME280;30778;53.574;7.770;2023-11-19T03:42:46;100279.03;;;7.95;68.26
45040;BME280;30778;53.574;7.770;2023-11-19T03:45:11;100269.66;;;7.91;68.74
45040;BME280;30778;53.574;7.770;2023-11-19T03:47:37;100271.84;;;7.56;69.57
45040;BME280;30778;53.574;7.770;2023-11-19T03:50:03;100270.22;;;7.76;68.93
45040;BME280;30778;53.574;7.770;2023-11-19T03:52:29;100270.88;;;8.04;67.72
45040;BME280;30778;53.574;7.770;2023-11-19T03:54:55;100272.50;;;7.61;70.19
45040;BME280;30778;53.574;7.770;2023-11-19T03:57:21;100265.47;;;7.87;68.70
45040;BME280;30778;53.574;7.770;2023-11-19T03:59:47;100264.00;;;7.80;68.63
45040;BME280;30778;53.574;7.770;2023-11-19T04:02:13;100272.84;;;7.76;68.17
45040;BME280;30778;53.574;7.770;2023-11-19T04:04:39;100272.63;;;7.58;68.86
45040;BME280;30778;53.574;7.770;2023-11-19T04:07:05;100262.97;;;8.07;67.94
45040;BME280;30778;53.574;7.770;2023-11-19T04:09:31;100267.97;;;7.90;68.23
45040;BME280;30778;53.574;7.770;2023-11-19T04:11:59;100251.34;;;7.70;68.23
45040;BME280;30778;53.574;7.770;2023-11-19T04:14:26;100258.19;;;8.19;66.88
45040;BME280;30778;53.574;7.770;2023-11-19T04:16:52;100257.56;;;7.90;68.13
45040;BME280;30778;53.574;7.770;2023-11-19T04:19:19;100252.78;;;8.01;67.11
45040;BME280;30778;53.574;7.770;2023-11-19T04:21:45;100238.19;;;8.19;67.01
45040;BME280;30778;53.574;7.770;2023-11-19T04:24:11;100246.31;;;8.11;67.38
45040;BME280;30778;53.574;7.770;2023-11-19T04:26:43;100244.13;;;7.79;68.02
45040;BME280;30778;53.574;7.770;2023-11-19T04:29:14;100243.53;;;7.94;67.75
45040;BME280;30778;53.574;7.770;2023-11-19T04:31:41;100249.41;;;7.99;67.36
45040;BME280;30778;53.574;7.770;2023-11-19T04:34:07;100253.78;;;7.75;67.77
45040;BME280;30778;53.574;7.770;2023-11-19T04:36:33;100242.50;;;7.76;67.49
45040;BME280;30778;53.574;7.770;2023-11-19T04:38:59;100243.75;;;7.88;67.51
45040;BME280;30778;53.574;7.770;2023-11-19T04:41:26;100255.81;;;7.90;67.33
45040;BME280;30778;53.574;7.770;2023-11-19T04:43:53;100248.31;;;7.59;68.31
45040;BME280;30778;53.574;7.770;2023-11-19T04:46:19;100240.59;;;7.80;67.18
45040;BME280;30778;53.574;7.770;2023-11-19T04:48:45;100242.41;;;7.78;67.15
45040;BME280;30778;53.574;7.770;2023-11-19T04:51:11;100236.63;;;7.93;66.57
45040;BME280;30778;53.574;7.770;2023-11-19T04:53:36;100236.00;;;7.86;66.65
45040;BME280;30778;53.574;7.770;2023-11-19T04:56:08;100233.44;;;7.63;66.87
45040;BME280;30778;53.574;7.770;2023-11-19T04:58:34;100227.69;;;7.53;68.33
45040;BME280;30778;53.574;7.770;2023-11-19T05:01:01;100232.59;;;7.62;67.30
45040;BME280;30778;53.574;7.770;2023-11-19T05:03:27;100237.34;;;7.74;67.55
45040;BME280;30778;53.574;7.770;2023-11-19T05:05:52;100238.53;;;7.66;67.81
45040;BME280;30778;53.574;7.770;2023-11-19T05:08:18;100235.88;;;7.67;66.89
45040;BME280;30778;53.574;7.770;2023-11-19T05:10:44;100236.09;;;7.61;67.55
45040;BME280;30778;53.574;7.770;2023-11-19T05:13:09;100227.31;;;7.87;66.66
45040;BME280;30778;53.574;7.770;2023-11-19T05:15:35;100227.69;;;7.53;67.49
45040;BME280;30778;53.574;7.770;2023-11-19T05:18:01;100225.56;;;7.64;66.59
45040;BME280;30778;53.574;7.770;2023-11-19T05:20:27;100238.09;;;7.53;67.17
45040;BME280;30778;53.574;7.770;2023-11-19T05:22:52;100225.19;;;7.51;66.99
45040;BME280;30778;53.574;7.770;2023-11-19T05:25:18;100225.78;;;7.82;65.20
45040;BME280;30778;53.574;7.770;2023-11-19T05:27:45;100220.13;;;7.70;66.66
45040;BME280;30778;53.574;7.770;2023-11-19T05:30:11;100222.63;;;7.50;66.54
45040;BME280;30778;53.574;7.770;2023-11-19T05:32:36;100229.72;;;7.70;66.15
45040;BME280;30778;53.574;7.770;2023-11-19T05:35:02;100233.16;;;7.70;66.04
45040;BME280;30778;53.574;7.770;2023-11-19T05:37:29;100227.97;;;7.47;67.23
45040;BME280;30778;53.574;7.770;2023-11-19T05:39:54;100243.72;;;7.89;66.25
45040;BME280;30778;53.574;7.770;2023-11-19T05:42:19;100245.22;;;7.48;66.63
45040;BME280;30778;53.574;7.770;2023-11-19T05:44:45;100246.53;;;7.83;65.86
45040;BME280;30778;53.574;7.770;2023-11-19T05:47:11;100235.91;;;7.89;65.57
45040;BME280;30778;53.574;7.770;2023-11-19T05:49:37;100246.59;;;7.82;66.16
45040;BME280;30778;53.574;7.770;2023-11-19T05:52:03;100247.47;;;7.59;66.58
45040;BME280;30778;53.574;7.770;2023-11-19T05:54:29;100256.53;;;7.94;65.67
45040;BME280;30778;53.574;7.770;2023-11-19T05:56:54;100255.09;;;7.63;66.09
45040;BME280;30778;53.574;7.770;2023-11-19T05:59:20;100249.41;;;7.52;66.14
45040;BME280;30778;53.574;7.770;2023-11-19T06:01:48;100249.19;;;7.82;65.08
45040;BME280;30778;53.574;7.770;2023-11-19T06:04:16;100239.16;;;7.72;64.86
45040;BME280;30778;53.574;7.770;2023-11-19T06:06:41;100251.50;;;7.67;65.70
45040;BME280;30778;53.574;7.770;2023-11-19T06:09:07;100264.50;;;7.67;64.92
45040;BME280;30778;53.574;7.770;2023-11-19T06:11:34;100249.25;;;8.02;64.55
45040;BME280;30778;53.574;7.770;2023-11-19T06:14:01;100263.78;;;7.86;65.09
45040;BME280;30778;53.574;7.770;2023-11-19T06:16:27;100266.16;;;7.68;65.15
45040;BME280;30778;53.574;7.770;2023-11-19T06:18:53;100266.59;;;7.32;66.40
45040;BME280;30778;53.574;7.770;2023-11-19T06:21:19;100254.81;;;7.71;65.45
45040;BME280;30778;53.574;7.770;2023-11-19T06:23:44;100263.13;;;7.81;64.83
45040;BME280;30778;53.574;7.770;2023-11-19T06:26:10;100263.22;;;7.78;65.06
45040;BME280;30778;53.574;7.770;2023-11-19T06:28:36;100278.16;;;7.49;65.76
45040;BME280;30778;53.574;7.770;2023-11-19T06:31:03;100268.78;;;7.68;65.26
45040;BME280;30778;53.574;7.770;2023-11-19T06:33:29;100268.06;;;7.87;64.65
45040;BME280;30778;53.574;7.770;2023-11-19T06:35:54;100266.72;;;7.53;64.94
45040;BME280;30778;53.574;7.770;2023-11-19T06:38:20;100276.03;;;7.60;65.26
45040;BME280;30778;53.574;7.770;2023-11-19T06:40:45;100277.19;;;7.51;65.14
45040;BME280;30778;53.574;7.770;2023-11-19T06:43:11;100276.47;;;7.71;64.53
45040;BME280;30778;53.574;7.770;2023-11-19T06:45:36;100276.56;;;7.92;64.05
45040;BME280;30778;53.574;7.770;2023-11-19T06:48:03;100281.22;;;7.35;65.13
45040;BME280;30778;53.574;7.770;2023-11-19T06:50:29;100276.81;;;7.14;66.58
45040;BME280;30778;53.574;7.770;2023-11-19T06:52:54;100282.91;;;7.61;64.65
45040;BME280;30778;53.574;7.770;2023-11-19T06:55:20;100275.00;;;7.16;65.96
45040;BME280;30778;53.574;7.770;2023-11-19T06:57:45;100272.00;;;7.26;66.04
45040;BME280;30778;53.574;7.770;2023-11-19T07:00:11;100276.69;;;7.65;64.81
45040;BME280;30778;53.574;7.770;2023-11-19T07:02:37;100289.00;;;7.11;66.15
45040;BME280;30778;53.574;7.770;2023-11-19T07:05:03;100290.16;;;7.28;65.25
45040;BME280;30778;53.574;7.770;2023-11-19T07:07:31;100282.72;;;7.42;64.92
45040;BME280;30778;53.574;7.770;2023-11-19T07:09:57;100286.72;;;7.51;64.80
45040;BME280;30778;53.574;7.770;2023-11-19T07:12:22;100290.66;;;7.38;65.49
45040;BME280;30778;53.574;7.770;2023-11-19T07:14:48;100288.06;;;7.38;65.39
45040;BME280;30778;53.574;7.770;2023-11-19T07:17:13;100289.06;;;7.10;65.57
45040;BME280;30778;53.574;7.770;2023-11-19T07:19:40;100284.28;;;7.46;64.36
45040;BME280;30778;53.574;7.770;2023-11-19T07:22:06;100293.06;;;7.44;64.61
45040;BME280;30778;53.574;7.770;2023-11-19T07:24:32;100302.91;;;7.36;64.76
45040;BME280;30778;53.574;7.770;2023-11-19T07:26:57;100303.19;;;7.26;65.15
45040;BME280;30778;53.574;7.770;2023-11-19T07:29:23;100300.22;;;7.37;64.15
45040;BME280;30778;53.574;7.770;2023-11-19T07:31:49;100301.28;;;7.57;63.67
45040;BME280;30778;53.574;7.770;2023-11-19T07:34:14;100297.38;;;7.45;63.98
45040;BME280;30778;53.574;7.770;2023-11-19T07:36:40;100295.44;;;7.50;64.09
45040;BME280;30778;53.574;7.770;2023-11-19T07:39:06;100301.19;;;7.09;65.34
45040;BME280;30778;53.574;7.770;2023-11-19T07:41:32;100297.94;;;7.04;64.41
45040;BME280;30778;53.574;7.770;2023-11-19T07:43:58;100304.38;;;7.43;63.95
45040;BME280;30778;53.574;7.770;2023-11-19T07:46:24;100307.06;;;7.65;63.20
45040;BME280;30778;53.574;7.770;2023-11-19T07:48:52;100307.97;;;7.39;63.76
45040;BME280;30778;53.574;7.770;2023-11-19T07:51:17;100302.41;;;7.24;64.53
45040;BME280;30778;53.574;7.770;2023-11-19T07:53:43;100315.13;;;7.57;63.33
45040;BME280;30778;53.574;7.770;2023-11-19T07:56:09;100311.38;;;7.41;63.49
45040;BME280;30778;53.574;7.770;2023-11-19T07:58:34;100313.19;;;7.39;63.47
45040;BME280;30778;53.574;7.770;2023-11-19T08:01:00;100319.84;;;7.46;62.76
45040;BME280;30778;53.574;7.770;2023-11-19T08:03:27;100313.78;;;7.70;62.63
45040;BME280;30778;53.574;7.770;2023-11-19T08:05:55;100314.94;;;7.38;64.16
45040;BME280;30778;53.574;7.770;2023-11-19T08:08:22;100323.00;;;7.56;63.75
45040;BME280;30778;53.574;7.770;2023-11-19T08:10:48;100326.22;;;7.12;64.45
45040;BME280;30778;53.574;7.770;2023-11-19T08:13:14;100321.25;;;7.56;63.13
45040;BME280;30778;53.574;7.770;2023-11-19T08:15:40;100322.91;;;7.33;63.75
45040;BME280;30778;53.574;7.770;2023-11-19T08:18:06;100325.16;;;7.43;63.85
45040;BME280;30778;53.574;7.770;2023-11-19T08:20:33;100325.25;;;7.88;62.49
45040;BME280;30778;53.574;7.770;2023-11-19T08:22:59;100333.25;;;7.60;63.28
45040;BME280;30778;53.574;7.770;2023-11-19T08:25:24;100335.97;;;7.81;62.53
45040;BME280;30778;53.574;7.770;2023-11-19T08:27:50;100334.81;;;7.64;62.62
45040;BME280;30778;53.574;7.770;2023-11-19T08:30:16;100334.25;;;7.80;62.36
45040;BME280;30778;53.574;7.770;2023-11-19T08:32:41;100337.59;;;7.60;63.26
45040;BME280;30778;53.574;7.770;2023-11-19T08:35:07;100342.22;;;7.75;63.64
45040;BME280;30778;53.574;7.770;2023-11-19T08:37:34;100349.03;;;7.54;64.12
45040;BME280;30778;53.574;7.770;2023-11-19T08:40:02;100341.03;;;7.84;63.70
45040;BME280;30778;53.574;7.770;2023-11-19T08:42:29;100347.00;;;7.87;63.41
45040;BME280;30778;53.574;7.770;2023-11-19T08:44:54;100344.03;;;7.48;64.27
45040;BME280;30778;53.574;7.770;2023-11-19T08:47:20;100351.66;;;7.78;63.63
45040;BME280;30778;53.574;7.770;2023-11-19T08:49:48;100350.88;;;7.76;64.13
45040;BME280;30778;53.574;7.770;2023-11-19T08:52:15;100352.97;;;7.41;64.50
45040;BME280;30778;53.574;7.770;2023-11-19T08:54:43;100353.84;;;7.40;64.19
45040;BME280;30778;53.574;7.770;2023-11-19T08:57:09;100363.31;;;7.91;63.21
45040;BME280;30778;53.574;7.770;2023-11-19T08:59:35;100358.47;;;8.05;62.99
45040;BME280;30778;53.574;7.770;2023-11-19T09:02:00;100359.13;;;7.87;63.04
45040;BME280;30778;53.574;7.770;2023-11-19T09:04:27;100356.03;;;7.52;63.93
45040;BME280;30778;53.574;7.770;2023-11-19T09:06:53;100363.97;;;7.49;64.23
45040;BME280;30778;53.574;7.770;2023-11-19T09:09:19;100367.97;;;8.06;62.42
45040;BME280;30778;53.574;7.770;2023-11-19T09:11:44;100357.59;;;7.58;63.64
45040;BME280;30778;53.574;7.770;2023-11-19T09:14:10;100364.84;;;7.73;63.07
45040;BME280;30778;53.574;7.770;2023-11-19T09:16:36;100365.19;;;7.39;63.95
45040;BME280;30778;53.574;7.770;2023-11-19T09:19:01;100371.13;;;7.67;63.48
45040;BME280;30778;53.574;7.770;2023-11-19T09:21:28;100376.47;;;8.11;62.28
45040;BME280;30778;53.574;7.770;2023-11-19T09:23:57;100383.72;;;8.03;62.92
45040;BME280;30778;53.574;7.770;2023-11-19T09:26:23;100383.78;;;8.47;61.60
45040;BME280;30778;53.574;7.770;2023-11-19T09:28:50;100379.03;;;8.35;61.54
45040;BME280;30778;53.574;7.770;2023-11-19T09:31:18;100364.84;;;8.42;60.72
45040;BME280;30778;53.574;7.770;2023-11-19T09:33:45;100380.88;;;8.31;61.13
45040;BME280;30778;53.574;7.770;2023-11-19T09:36:13;100387.16;;;8.04;62.37
45040;BME280;30778;53.574;7.770;2023-11-19T09:38:40;100383.84;;;8.22;61.43
45040;BME280;30778;53.574;7.770;2023-11-19T09:41:09;100383.34;;;7.65;62.91
45040;BME280;30778;53.574;7.770;2023-11-19T09:43:39;100379.38;;;8.26;61.46
45040;BME280;30778;53.574;7.770;2023-11-19T09:46:06;100381.28;;;7.99;61.93
45040;BME280;30778;53.574;7.770;2023-11-19T09:48:35;100375.31;;;7.95;62.03
45040;BME280;30778;53.574;7.770;2023-11-19T09:51:02;100380.44;;;7.48;63.12
45040;BME280;30778;53.574;7.770;2023-11-19T09:53:30;100385.94;;;7.89;62.09
45040;BME280;30778;53.574;7.770;2023-11-19T09:55:56;100383.78;;;8.00;61.97
45040;BME280;30778;53.574;7.770;2023-11-19T09:58:22;100392.56;;;7.98;62.08
45040;BME280;30778;53.574;7.770;2023-11-19T10:00:49;100384.56;;;7.55;63.08
45040;BME280;30778;53.574;7.770;2023-11-19T10:03:17;100384.50;;;8.05;62.04
45040;BME280;30778;53.574;7.770;2023-11-19T10:05:43;100399.41;;;8.00;61.86
45040;BME280;30778;53.574;7.770;2023-11-19T10:08:09;100390.81;;;7.74;62.08
45040;BME280;30778;53.574;7.770;2023-11-19T10:10:37;100393.28;;;8.03;61.64
45040;BME280;30778;53.574;7.770;2023-11-19T10:13:03;100388.84;;;8.50;60.87
45040;BME280;30778;53.574;7.770;2023-11-19T10:15:40;100385.47;;;8.70;59.49
45040;BME280;30778;53.574;7.770;2023-11-19T10:18:07;100378.78;;;8.19;60.56
45040;BME280;30778;53.574;7.770;2023-11-19T10:20:37;100401.56;;;8.36;60.56
45040;BME280;30778;53.574;7.770;2023-11-19T10:23:09;100394.88;;;8.29;60.54
45040;BME280;30778;53.574;7.770;2023-11-19T10:25:40;100394.13;;;8.03;61.09
45040;BME280;30778;53.574;7.770;2023-11-19T10:28:06;100385.22;;;8.09;61.15
45040;BME280;30778;53.574;7.770;2023-11-19T10:30:31;100374.31;;;8.23;61.20
45040;BME280;30778;53.574;7.770;2023-11-19T10:35:50;100375.97;;;8.47;60.45
45040;BME280;30778;53.574;7.770;2023-11-19T10:38:19;100376.97;;;8.87;59.49
45040;BME280;30778;53.574;7.770;2023-11-19T10:40:45;100369.59;;;8.98;59.11
45040;BME280;30778;53.574;7.770;2023-11-19T10:43:11;100370.16;;;9.05;58.49
45040;BME280;30778;53.574;7.770;2023-11-19T10:45:38;100367.00;;;9.19;57.87
45040;BME280;30778;53.574;7.770;2023-11-19T10:48:07;100380.16;;;9.57;57.80
45040;BME280;30778;53.574;7.770;2023-11-19T10:50:37;100378.34;;;9.59;57.50
45040;BME280;30778;53.574;7.770;2023-11-19T10:53:04;100375.75;;;9.78;56.88
45040;BME280;30778;53.574;7.770;2023-11-19T10:55:37;100385.75;;;8.63;58.95
45040;BME280;30778;53.574;7.770;2023-11-19T10:58:07;100393.06;;;9.39;58.04
45040;BME280;30778;53.574;7.770;2023-11-19T11:00:48;100399.16;;;8.97;58.82
45040;BME280;30778;53.574;7.770;2023-11-19T11:03:21;100385.25;;;9.39;57.81
45040;BME280;30778;53.574;7.770;2023-11-19T11:05:48;100379.00;;;9.23;58.19
45040;BME280;30778;53.574;7.770;2023-11-19T11:08:15;100380.41;;;9.51;57.80
45040;BME280;30778;53.574;7.770;2023-11-19T11:10:46;100380.03;;;9.99;56.79
45040;BME280;30778;53.574;7.770;2023-11-19T11:13:14;100383.50;;;10.00;56.32
45040;BME280;30778;53.574;7.770;2023-11-19T11:15:40;100373.94;;;9.99;56.32
45040;BME280;30778;53.574;7.770;2023-11-19T11:18:09;100381.97;;;9.55;56.56
45040;BME280;30778;53.574;7.770;2023-11-19T11:20:35;100375.84;;;9.15;58.08
45040;BME280;30778;53.574;7.770;2023-11-19T11:26:19;100375.84;;;9.15;58.25
45040;BME280;30778;53.574;7.770;2023-11-19T11:31:45;100373.25;;;8.94;58.58
45040;BME280;30778;53.574;7.770;2023-11-19T11:34:45;100365.84;;;8.62;59.79
45040;BME280;30778;53.574;7.770;2023-11-19T11:37:44;100368.69;;;9.20;58.38
45040;BME280;30778;53.574;7.770;2023-11-19T11:40:16;100371.56;;;9.34;57.67
45040;BME280;30778;53.574;7.770;2023-11-19T11:42:46;100373.22;;;9.56;57.56
45040;BME280;30778;53.574;7.770;2023-11-19T11:45:13;100370.69;;;8.93;58.78
45040;BME280;30778;53.574;7.770;2023-11-19T11:50:20;100363.47;;;9.00;59.21
45040;BME280;30778;53.574;7.770;2023-11-19T11:55:36;100370.09;;;9.27;59.06
45040;BME280;30778;53.574;7.770;2023-11-19T11:58:03;100374.72;;;9.62;57.53
45040;BME280;30778;53.574;7.770;2023-11-19T12:00:36;100368.38;;;9.28;57.67
45040;BME280;30778;53.574;7.770;2023-11-19T12:03:08;100364.00;;;9.08;58.31
45040;BME280;30778;53.574;7.770;2023-11-19T12:05:42;100363.50;;;8.98;58.54
45040;BME280;30778;53.574;7.770;2023-11-19T12:08:10;100371.59;;;8.70;59.76
45040;BME280;30778;53.574;7.770;2023-11-19T12:10:46;100358.66;;;9.11;59.79
45040;BME280;30778;53.574;7.770;2023-11-19T12:13:14;100359.28;;;8.95;60.44
45040;BME280;30778;53.574;7.770;2023-11-19T12:18:26;100373.06;;;8.77;61.02
45040;BME280;30778;53.574;7.770;2023-11-19T12:20:52;100370.94;;;8.87;60.93
45040;BME280;30778;53.574;7.770;2023-11-19T12:23:18;100372.91;;;8.58;61.72
45040;BME280;30778;53.574;7.770;2023-11-19T12:25:44;100382.47;;;8.81;61.00
45040;BME280;30778;53.574;7.770;2023-11-19T12:28:15;100372.22;;;9.19;60.12
45040;BME280;30778;53.574;7.770;2023-11-19T12:30:45;100359.91;;;8.80;60.34
45040;BME280;30778;53.574;7.770;2023-11-19T12:33:12;100366.34;;;8.71;60.94
45040;BME280;30778;53.574;7.770;2023-11-19T12:35:46;100369.94;;;8.89;60.09
45040;BME280;30778;53.574;7.770;2023-11-19T12:38:25;100364.84;;;9.08;59.58
45040;BME280;30778;53.574;7.770;2023-11-19T12:41:08;100363.59;;;8.96;59.78
45040;BME280;30778;53.574;7.770;2023-11-19T12:43:37;100370.50;;;8.53;60.55
45040;BME280;30778;53.574;7.770;2023-11-19T12:46:22;100358.69;;;8.45;60.70
45040;BME280;30778;53.574;7.770;2023-11-19T12:48:49;100373.69;;;8.60;60.16
45040;BME280;30778;53.574;7.770;2023-11-19T12:51:15;100364.06;;;9.06;59.54
45040;BME280;30778;53.574;7.770;2023-11-19T12:53:48;100364.41;;;8.76;59.85
45040;BME280;30778;53.574;7.770;2023-11-19T12:56:15;100365.53;;;8.47;60.17
45040;BME280;30778;53.574;7.770;2023-11-19T12:58:41;100361.66;;;8.57;59.38
45040;BME280;30778;53.574;7.770;2023-11-19T13:01:09;100358.31;;;8.32;60.16
45040;BME280;30778;53.574;7.770;2023-11-19T13:03:37;100363.41;;;8.57;60.16
45040;BME280;30778;53.574;7.770;2023-11-19T13:06:08;100372.97;;;8.34;60.23
45040;BME280;30778;53.574;7.770;2023-11-19T13:08:54;100361.22;;;8.68;59.29
45040;BME280;30778;53.574;7.770;2023-11-19T13:11:31;100363.53;;;8.76;58.78
45040;BME280;30778;53.574;7.770;2023-11-19T13:14:02;100355.66;;;8.11;60.68
45040;BME280;30778;53.574;7.770;2023-11-19T13:16:31;100354.19;;;8.70;59.35
45040;BME280;30778;53.574;7.770;2023-11-19T13:18:57;100350.69;;;8.71;59.29